Portada
METAR-TAF:

METAR-TAF

Aeroports :

Muskogee, Oklahoma, Estats Units d'Amèrica

latitud: 35-39-25N, longitud: 095-21-35W, altitud: 185 m

Observació

L'informe es va fer fa 42 minuts, a les 20:53 UTC
Vent 12 kt del Nord
Temperatura 11°C
Humitat 87%
Pressió 1015 hPa
Visibilitat: 16.1 km
Cel cobert a una alçada de 1200 ft

METAR: KMKO 212053Z AUTO 36012KT 10SM OVC012 11/09 A2997 RMK AO2 SLP146 60002 T01060089 56008

Hora: 15:35 (21:35 UTC)


TAF: manca

Observacions i pronòstics meteorològics de més de 4000 aeroports (METAR i TAF).

Les estacions disponibles són els punts grocs i vermells al mapa.

Posi el ratolí al punt desitjat per veure el nom de l'estació.

Feu clic per veure les observacions i els pronòstics meteorològics.

Per canviar el mapa: feu clic els botons verds amb una creu de color negre per apropar; al botó verd amb un guió per allunyar la imatge; o en les fletxes verdes per a mapes adjacents.


METAR-TAF: